createdAt,value
2022-10-10T00:00:26.712Z,8.02
2022-10-10T00:02:56.276Z,4.60
2022-10-10T00:05:25.813Z,5.13
2022-10-10T00:07:55.379Z,4.75
2022-10-10T00:10:25.013Z,4.68
2022-10-10T00:12:57.143Z,3.55
2022-10-10T00:15:26.724Z,7.68
2022-10-10T00:17:56.321Z,5.13
2022-10-10T00:20:26.025Z,7.53
2022-10-10T00:22:55.559Z,4.82
2022-10-10T00:25:25.140Z,6.32
2022-10-10T00:27:57.243Z,5.23
2022-10-10T00:30:26.796Z,5.37
2022-10-10T00:32:56.339Z,5.40
2022-10-10T00:35:25.985Z,3.42
2022-10-10T00:37:55.514Z,4.90
2022-10-10T00:40:25.855Z,4.60
2022-10-10T00:42:58.056Z,4.55
2022-10-10T00:45:31.832Z,4.97
2022-10-10T00:48:04.100Z,3.83
2022-10-10T00:50:35.164Z,5.60
2022-10-10T00:53:07.147Z,4.70
2022-10-10T00:55:37.947Z,3.47
2022-10-10T00:58:11.078Z,6.50
2022-10-10T01:00:40.682Z,4.68
2022-10-10T01:03:10.266Z,4.35
2022-10-10T01:05:40.117Z,4.50
2022-10-10T01:08:10.787Z,4.25
2022-10-10T01:10:47.691Z,6.38
2022-10-10T01:13:27.022Z,5.63
2022-10-10T01:16:02.832Z,5.07
2022-10-10T01:18:39.297Z,5.18
2022-10-10T01:21:26.171Z,5.13
2022-10-10T01:24:17.311Z,5.78
2022-10-10T01:27:11.536Z,5.50
2022-10-10T01:29:45.749Z,3.67
2022-10-10T01:32:18.659Z,5.72
2022-10-10T01:34:58.707Z,5.00
2022-10-10T01:37:34.662Z,5.07
2022-10-10T01:40:07.936Z,4.10
2022-10-10T01:42:42.644Z,4.18
2022-10-10T01:45:14.991Z,5.25
2022-10-10T01:47:44.769Z,4.47
2022-10-10T01:50:15.766Z,4.77
2022-10-10T01:52:55.174Z,4.20
2022-10-10T01:55:32.012Z,5.60
2022-10-10T01:58:17.195Z,15.50
2022-10-10T02:00:53.524Z,6.78
2022-10-10T02:03:27.232Z,8.10
2022-10-10T02:05:59.606Z,6.50
2022-10-10T02:08:33.877Z,7.20
2022-10-10T02:11:05.008Z,8.02
2022-10-10T02:13:39.204Z,4.70
2022-10-10T02:16:16.323Z,8.50
2022-10-10T02:18:48.139Z,5.17
2022-10-10T02:21:18.673Z,7.68
2022-10-10T02:23:51.034Z,6.33
2022-10-10T02:26:21.742Z,7.50
2022-10-10T02:28:54.294Z,7.93
2022-10-10T02:31:31.148Z,4.93
2022-10-10T02:34:04.553Z,5.93
2022-10-10T02:36:34.674Z,4.50
2022-10-10T02:39:05.583Z,6.95
2022-10-10T02:41:36.528Z,7.28
2022-10-10T02:44:06.346Z,7.00
2022-10-10T02:46:38.500Z,4.35
2022-10-10T02:49:10.766Z,6.10
2022-10-10T02:51:40.769Z,6.85
2022-10-10T02:54:10.360Z,4.75
2022-10-10T02:56:39.993Z,7.95
2022-10-10T02:59:09.508Z,7.68
2022-10-10T03:01:41.671Z,6.00
2022-10-10T03:04:11.417Z,6.10
2022-10-10T03:06:41.105Z,5.47
2022-10-10T03:09:10.936Z,5.22
2022-10-10T03:11:40.577Z,6.45
2022-10-10T03:14:10.357Z,7.07
2022-10-10T03:16:42.510Z,4.72
2022-10-10T03:19:12.128Z,5.75
2022-10-10T03:21:41.697Z,5.97
2022-10-10T03:24:11.236Z,8.40
2022-10-10T03:26:40.822Z,5.38
2022-10-10T03:29:10.898Z,5.65
2022-10-10T03:31:43.066Z,4.97
2022-10-10T03:34:12.970Z,8.53
2022-10-10T03:36:42.551Z,5.10
2022-10-10T03:39:12.184Z,6.90
2022-10-10T03:41:41.705Z,5.90
2022-10-10T03:44:11.289Z,6.18
2022-10-10T03:46:43.375Z,8.15
2022-10-10T03:49:12.936Z,7.70
2022-10-10T03:51:42.456Z,6.47
2022-10-10T03:54:12.062Z,8.65
2022-10-10T03:56:41.841Z,6.77
2022-10-10T03:59:11.448Z,8.75
2022-10-10T04:01:43.785Z,5.57
2022-10-10T04:04:13.747Z,5.20
2022-10-10T04:06:43.378Z,6.93
2022-10-10T04:09:12.900Z,6.85
2022-10-10T04:11:43.376Z,8.32
2022-10-10T04:14:12.921Z,8.60
2022-10-10T04:16:45.089Z,9.03
2022-10-10T04:19:15.086Z,7.57
2022-10-10T04:21:44.747Z,9.25
2022-10-10T04:24:14.382Z,5.88
2022-10-10T04:26:43.935Z,6.78
2022-10-10T04:29:13.469Z,7.20
2022-10-10T04:31:45.574Z,7.65
2022-10-10T04:34:15.332Z,9.10
2022-10-10T04:36:44.975Z,12.82
2022-10-10T04:39:14.664Z,8.50
2022-10-10T04:41:44.211Z,8.57
2022-10-10T04:44:13.720Z,11.55
2022-10-10T04:46:46.264Z,9.23
2022-10-10T04:49:15.844Z,9.50
2022-10-10T04:51:45.424Z,8.38
2022-10-10T04:54:14.986Z,7.57
2022-10-10T04:56:45.976Z,6.05
2022-10-10T04:59:15.506Z,6.90
2022-10-10T05:01:47.649Z,7.30
2022-10-10T05:04:17.197Z,7.32
2022-10-10T05:06:46.791Z,12.52
2022-10-10T05:09:16.351Z,6.97
2022-10-10T05:11:45.883Z,6.10
2022-10-10T05:14:15.447Z,7.23
2022-10-10T05:16:47.767Z,7.30
2022-10-10T05:19:17.872Z,21.45
2022-10-10T05:21:47.431Z,12.52
2022-10-10T05:24:17.099Z,8.32
2022-10-10T05:26:46.748Z,8.85
2022-10-10T05:29:16.465Z,10.95
2022-10-10T05:31:48.612Z,7.93
2022-10-10T05:34:18.235Z,7.93
2022-10-10T05:36:47.782Z,7.80
2022-10-10T05:39:17.402Z,10.40
2022-10-10T05:41:46.949Z,10.75
2022-10-10T05:44:16.515Z,8.65
2022-10-10T05:46:48.712Z,7.10
2022-10-10T05:49:18.493Z,12.07
2022-10-10T05:51:48.124Z,13.13
2022-10-10T05:54:17.843Z,7.80
2022-10-10T05:56:47.372Z,9.35
2022-10-10T05:59:16.944Z,5.80
2022-10-10T06:01:49.181Z,7.60
2022-10-10T06:04:18.786Z,9.57
2022-10-10T06:06:48.282Z,7.25
2022-10-10T06:09:17.931Z,7.40
2022-10-10T06:11:47.643Z,7.53
2022-10-10T06:14:17.388Z,7.75
2022-10-10T06:16:49.703Z,7.22
2022-10-10T06:19:19.254Z,8.18
2022-10-10T06:21:48.832Z,8.25
2022-10-10T06:24:18.506Z,8.82
2022-10-10T06:26:48.024Z,6.85
2022-10-10T06:29:17.584Z,7.20
2022-10-10T06:31:49.728Z,9.18
2022-10-10T06:34:19.282Z,6.60
2022-10-10T06:36:49.172Z,12.60
2022-10-10T06:39:18.749Z,10.65
2022-10-10T06:41:48.354Z,6.95
2022-10-10T06:44:21.272Z,11.38
2022-10-10T06:46:53.645Z,7.47
2022-10-10T06:49:23.265Z,6.97
2022-10-10T06:51:52.835Z,11.20
2022-10-10T06:54:22.380Z,7.50
2022-10-10T06:56:52.208Z,11.67
2022-10-10T06:59:21.756Z,8.15
2022-10-10T07:01:53.911Z,9.30
2022-10-10T07:04:23.485Z,12.52
2022-10-10T07:06:53.043Z,7.75
2022-10-10T07:09:22.648Z,11.40
2022-10-10T07:11:52.170Z,12.70
2022-10-10T07:14:21.695Z,9.95
2022-10-10T07:16:53.876Z,7.15
2022-10-10T07:19:25.004Z,7.55
2022-10-10T07:21:54.755Z,10.63
2022-10-10T07:24:24.404Z,7.73
2022-10-10T07:27:03.494Z,8.38
2022-10-10T07:29:34.722Z,9.88
2022-10-10T07:32:07.130Z,12.35
2022-10-10T07:34:39.698Z,9.23
2022-10-10T07:37:10.565Z,10.27
2022-10-10T07:39:40.251Z,11.05
2022-10-10T07:42:09.772Z,8.57
2022-10-10T07:44:39.337Z,11.53
2022-10-10T07:47:11.562Z,10.70
2022-10-10T07:49:41.282Z,10.75
2022-10-10T07:52:10.835Z,14.38
2022-10-10T07:54:40.368Z,14.75
2022-10-10T07:57:09.849Z,12.15
2022-10-10T07:59:40.685Z,9.90
2022-10-10T08:02:13.151Z,7.18
2022-10-10T08:04:43.119Z,9.88
2022-10-10T08:07:12.758Z,11.60
2022-10-10T08:09:42.519Z,8.15
2022-10-10T08:12:12.073Z,14.70
2022-10-10T08:14:41.678Z,12.27
2022-10-10T08:17:13.884Z,10.93
2022-10-10T08:19:43.434Z,9.05
2022-10-10T08:22:13.048Z,11.98
2022-10-10T08:24:42.680Z,10.90
2022-10-10T08:27:12.241Z,13.40
2022-10-10T08:29:41.840Z,8.10
2022-10-10T08:32:13.976Z,13.02
2022-10-10T08:34:43.599Z,9.82
2022-10-10T08:37:13.140Z,12.70
2022-10-10T08:39:42.898Z,11.70
2022-10-10T08:42:16.572Z,9.95
2022-10-10T08:44:49.276Z,11.80
2022-10-10T08:47:23.227Z,11.35
2022-10-10T08:49:54.723Z,14.32
2022-10-10T08:52:35.093Z,11.73
2022-10-10T08:55:09.061Z,12.30
2022-10-10T08:57:44.309Z,11.60
2022-10-10T09:00:19.114Z,10.25
2022-10-10T09:02:54.699Z,8.52
2022-10-10T09:05:32.796Z,9.95
2022-10-10T09:08:31.107Z,17.60
2022-10-10T09:11:05.182Z,18.13
2022-10-10T09:13:37.144Z,12.00
2022-10-10T09:16:09.642Z,13.70
2022-10-10T09:18:52.575Z,15.52
2022-10-10T09:21:25.496Z,16.35
2022-10-10T09:24:00.426Z,11.63
2022-10-10T09:26:32.156Z,7.13
2022-10-10T09:29:04.950Z,13.60
2022-10-10T09:31:37.000Z,13.93
2022-10-10T09:34:15.045Z,8.68
2022-10-10T09:36:45.062Z,12.10
2022-10-10T09:39:19.940Z,10.95
2022-10-10T09:41:54.769Z,8.60
2022-10-10T09:44:25.216Z,12.13
2022-10-10T09:46:55.290Z,11.95
2022-10-10T09:49:27.524Z,11.45
2022-10-10T09:51:57.069Z,16.42
2022-10-10T09:54:27.181Z,14.75
2022-10-10T09:56:59.194Z,7.82
2022-10-10T09:59:45.298Z,9.52
2022-10-10T10:02:17.716Z,9.00
2022-10-10T10:04:50.143Z,12.53
2022-10-10T10:07:29.505Z,15.18
2022-10-10T10:10:00.780Z,13.80
2022-10-10T10:12:33.211Z,9.88
2022-10-10T10:15:06.892Z,8.95
2022-10-10T10:17:36.496Z,12.05
2022-10-10T10:20:36.220Z,10.73
2022-10-10T10:23:06.297Z,12.18
2022-10-10T10:25:37.803Z,11.63
2022-10-10T10:28:23.055Z,11.10
2022-10-10T10:30:55.626Z,10.40
2022-10-10T10:33:40.902Z,14.20
2022-10-10T10:36:21.595Z,18.27
2022-10-10T10:38:55.130Z,13.13
2022-10-10T10:41:31.013Z,11.52
2022-10-10T10:44:08.856Z,15.55
2022-10-10T10:46:48.417Z,13.82
2022-10-10T10:49:21.792Z,13.73
2022-10-10T10:52:23.049Z,9.50
2022-10-10T10:55:10.214Z,8.43
2022-10-10T10:58:04.587Z,14.35
2022-10-10T11:01:24.136Z,15.00
2022-10-10T11:05:18.612Z,9.98
2022-10-10T11:07:19.037Z,10.27
2022-10-10T11:09:57.107Z,19.17
2022-10-10T11:12:42.982Z,13.48
2022-10-10T11:15:17.546Z,11.10
2022-10-10T11:17:51.357Z,14.18
2022-10-10T11:20:25.844Z,14.02
2022-10-10T11:23:00.092Z,18.30
2022-10-10T11:25:35.472Z,16.30
2022-10-10T11:28:08.207Z,9.35
2022-10-10T11:30:39.819Z,30.00
2022-10-10T11:33:14.279Z,13.85
2022-10-10T11:35:47.812Z,10.10
2022-10-10T11:38:21.891Z,12.98
2022-10-10T11:40:57.409Z,14.95
2022-10-10T11:43:32.935Z,12.70
2022-10-10T11:46:08.942Z,18.52
2022-10-10T11:48:44.734Z,12.10
2022-10-10T11:51:20.139Z,14.13
2022-10-10T11:53:51.702Z,15.95
2022-10-10T11:56:28.324Z,14.07
2022-10-10T11:59:00.132Z,22.97
2022-10-10T12:01:32.186Z,10.75
2022-10-10T12:04:01.724Z,12.05
2022-10-10T12:06:36.091Z,22.10
2022-10-10T12:09:10.977Z,16.55
2022-10-10T12:11:46.326Z,21.07
2022-10-10T12:14:18.449Z,18.45
2022-10-10T12:16:48.594Z,14.80
2022-10-10T12:19:21.186Z,16.60
2022-10-10T12:22:05.468Z,14.90
2022-10-10T12:24:42.377Z,16.27
2022-10-10T12:27:47.192Z,16.15
2022-10-10T12:30:24.782Z,15.45
2022-10-10T12:32:55.682Z,16.05
2022-10-10T12:35:46.139Z,21.45
2022-10-10T12:38:21.213Z,14.90
2022-10-10T12:41:09.831Z,12.32
2022-10-10T12:43:47.207Z,11.38
2022-10-10T12:46:23.897Z,10.95
2022-10-10T12:49:16.204Z,12.50
2022-10-10T12:51:46.093Z,15.48
2022-10-10T12:54:25.139Z,16.30
2022-10-10T12:57:01.680Z,14.90
2022-10-10T12:59:34.094Z,16.40
2022-10-10T13:02:07.272Z,15.73
2022-10-10T13:04:36.940Z,12.00
2022-10-10T13:07:06.726Z,11.25
2022-10-10T13:09:37.429Z,18.85
2022-10-10T13:12:08.660Z,13.38
2022-10-10T13:14:45.539Z,15.07
2022-10-10T13:17:24.347Z,10.73
2022-10-10T13:19:55.090Z,10.50
2022-10-10T13:22:25.468Z,12.20
2022-10-10T13:24:55.568Z,15.63
2022-10-10T13:27:27.132Z,15.77
2022-10-10T13:29:59.304Z,15.70
2022-10-10T13:32:30.810Z,11.35
2022-10-10T13:35:01.871Z,19.25
2022-10-10T13:37:32.188Z,17.30
2022-10-10T13:40:01.934Z,17.48
2022-10-10T13:42:34.888Z,13.95
2022-10-10T13:45:34.600Z,13.02
2022-10-10T13:48:23.216Z,16.52
2022-10-10T13:50:58.353Z,12.15
2022-10-10T13:53:35.727Z,19.75
2022-10-10T13:56:08.691Z,11.43
2022-10-10T13:58:43.648Z,15.23
2022-10-10T14:01:27.824Z,13.02
2022-10-10T14:04:00.097Z,16.35
2022-10-10T14:06:30.478Z,11.43
2022-10-10T14:09:06.966Z,15.02
2022-10-10T14:11:36.905Z,13.10
2022-10-10T14:14:09.560Z,17.25
2022-10-10T14:16:41.654Z,16.55
2022-10-10T14:19:17.958Z,14.47
2022-10-10T14:21:47.699Z,17.13
2022-10-10T14:24:17.401Z,15.90
2022-10-10T14:26:46.977Z,12.30
2022-10-10T14:29:18.083Z,17.33
2022-10-10T14:31:50.501Z,18.45
2022-10-10T14:34:20.272Z,17.70
2022-10-10T14:36:51.126Z,18.67
2022-10-10T14:39:21.920Z,13.15
2022-10-10T14:41:51.572Z,19.35
2022-10-10T14:44:21.148Z,19.10
2022-10-10T14:46:53.294Z,17.23
2022-10-10T14:49:23.894Z,14.00
2022-10-10T14:51:53.430Z,12.80
2022-10-10T14:54:22.971Z,9.88
2022-10-10T14:57:07.297Z,19.27
2022-10-10T14:59:46.046Z,8.80
2022-10-10T15:02:21.915Z,10.85
2022-10-10T15:04:51.937Z,13.18
2022-10-10T15:07:22.105Z,13.68
2022-10-10T15:10:27.452Z,13.07
2022-10-10T15:12:43.540Z,16.27
2022-10-10T15:15:15.003Z,12.80
2022-10-10T15:17:47.153Z,12.15
2022-10-10T15:20:16.755Z,14.23
2022-10-10T15:22:46.584Z,9.43
2022-10-10T15:25:16.140Z,12.23
2022-10-10T15:27:45.688Z,15.65
2022-10-10T15:30:15.937Z,12.70
2022-10-10T15:32:48.227Z,12.43
2022-10-10T15:35:19.403Z,10.10
2022-10-10T15:37:49.867Z,13.85
2022-10-10T15:40:21.939Z,8.40
2022-10-10T15:42:52.829Z,13.30
2022-10-10T15:45:51.013Z,10.57
2022-10-10T15:48:14.961Z,13.32
2022-10-10T15:50:44.773Z,15.35
2022-10-10T15:53:14.389Z,18.50
2022-10-10T15:55:45.051Z,14.50
2022-10-10T15:58:14.901Z,18.20
2022-10-10T16:00:46.207Z,14.00
2022-10-10T16:03:18.379Z,14.23
2022-10-10T16:05:48.048Z,9.57
2022-10-10T16:08:18.918Z,12.02
2022-10-10T16:10:48.449Z,11.88
2022-10-10T16:13:17.995Z,14.23
2022-10-10T16:15:47.610Z,13.87
2022-10-10T16:18:19.749Z,11.93
2022-10-10T16:20:49.288Z,15.55
2022-10-10T16:23:18.844Z,14.90
2022-10-10T16:25:48.395Z,10.00
2022-10-10T16:28:17.968Z,13.25
2022-10-10T16:30:47.635Z,13.30
2022-10-10T16:33:19.771Z,22.08
2022-10-10T16:35:49.341Z,11.13
2022-10-10T16:38:19.230Z,17.05
2022-10-10T16:40:48.784Z,14.40
2022-10-10T16:43:19.000Z,14.93
2022-10-10T16:45:49.191Z,11.73
2022-10-10T16:48:21.339Z,14.93
2022-10-10T16:50:50.879Z,12.88
2022-10-10T16:53:20.415Z,19.20
2022-10-10T16:55:49.997Z,14.87
2022-10-10T16:58:19.621Z,14.10
2022-10-10T17:00:49.146Z,13.73
2022-10-10T17:03:21.430Z,19.35
2022-10-10T17:05:51.313Z,18.02
2022-10-10T17:08:20.875Z,21.25
2022-10-10T17:10:50.397Z,20.25
2022-10-10T17:13:20.108Z,14.45
2022-10-10T17:15:49.632Z,17.15
2022-10-10T17:18:22.445Z,17.98
2022-10-10T17:20:52.027Z,18.45
2022-10-10T17:23:21.695Z,22.30
2022-10-10T17:25:51.231Z,19.75
2022-10-10T17:28:20.804Z,20.23
2022-10-10T17:30:52.028Z,16.43
2022-10-10T17:33:24.220Z,17.58
2022-10-10T17:35:53.783Z,16.52
2022-10-10T17:38:39.039Z,17.15
2022-10-10T17:41:12.213Z,15.68
2022-10-10T17:43:41.899Z,15.68
2022-10-10T17:46:34.922Z,16.50
2022-10-10T17:49:07.065Z,14.03
2022-10-10T17:51:36.992Z,11.40
2022-10-10T17:54:07.590Z,6.10
2022-10-10T17:56:37.752Z,11.10
2022-10-10T17:59:07.532Z,8.38
2022-10-10T18:01:37.503Z,9.10
2022-10-10T18:04:10.260Z,8.70
2022-10-10T18:06:40.295Z,9.10
2022-10-10T18:09:10.574Z,7.38
2022-10-10T18:11:40.089Z,11.75
2022-10-10T18:14:09.839Z,8.93
2022-10-10T18:16:39.468Z,11.30
2022-10-10T18:19:11.585Z,14.95
2022-10-10T18:21:41.145Z,10.67
2022-10-10T18:24:11.607Z,16.35
2022-10-10T18:26:41.191Z,13.10
2022-10-10T18:29:10.783Z,10.30
2022-10-10T18:31:40.841Z,9.00
2022-10-10T18:34:13.552Z,11.82
2022-10-10T18:36:44.192Z,11.48
2022-10-10T18:39:16.744Z,11.55
2022-10-10T18:41:46.315Z,13.82
2022-10-10T18:44:21.191Z,12.88
2022-10-10T18:46:52.160Z,11.05
2022-10-10T18:49:25.167Z,16.38
2022-10-10T18:51:54.748Z,13.88
2022-10-10T18:54:27.065Z,12.18
2022-10-10T18:56:56.606Z,13.75
2022-10-10T18:59:26.209Z,22.20
2022-10-10T19:01:55.839Z,16.73
2022-10-10T19:04:28.623Z,14.47
2022-10-10T19:06:58.206Z,14.65
2022-10-10T19:09:28.001Z,11.10
2022-10-10T19:11:57.581Z,11.90
2022-10-10T19:14:27.397Z,11.15
2022-10-10T19:16:56.936Z,12.65
2022-10-10T19:19:29.207Z,16.63
2022-10-10T19:21:58.747Z,15.40
2022-10-10T19:24:29.087Z,13.52
2022-10-10T19:26:59.402Z,10.50
2022-10-10T19:29:29.053Z,13.90
2022-10-10T19:31:58.788Z,16.30
2022-10-10T19:34:30.921Z,15.90
2022-10-10T19:37:00.524Z,10.05
2022-10-10T19:39:30.090Z,9.18
2022-10-10T19:41:59.812Z,12.07
2022-10-10T19:44:29.428Z,12.60
2022-10-10T19:47:00.442Z,12.70
2022-10-10T19:49:33.258Z,13.13
2022-10-10T19:52:02.784Z,15.80
2022-10-10T19:54:32.415Z,15.50
2022-10-10T19:57:01.994Z,10.65
2022-10-10T19:59:31.750Z,13.70
2022-10-10T20:02:01.361Z,13.50
2022-10-10T20:04:33.736Z,14.45
2022-10-10T20:07:03.326Z,12.30
2022-10-10T20:09:33.026Z,22.33
2022-10-10T20:12:02.760Z,12.50
2022-10-10T20:14:32.401Z,12.05
2022-10-10T20:17:01.940Z,12.18
2022-10-10T20:19:34.209Z,12.77
2022-10-10T20:22:03.816Z,13.80
2022-10-10T20:24:34.397Z,12.47
2022-10-10T20:27:04.009Z,11.48
2022-10-10T20:29:33.532Z,12.35
2022-10-10T20:32:03.045Z,18.13
2022-10-10T20:34:35.284Z,13.40
2022-10-10T20:37:04.896Z,16.27
2022-10-10T20:39:34.455Z,14.75
2022-10-10T20:42:04.022Z,16.07
2022-10-10T20:44:33.638Z,12.93
2022-10-10T20:47:03.391Z,12.25
2022-10-10T20:49:35.526Z,15.02
2022-10-10T20:52:05.113Z,12.30
2022-10-10T20:54:36.193Z,14.85
2022-10-10T20:57:05.819Z,15.13
2022-10-10T20:59:35.335Z,16.95
2022-10-10T21:02:04.936Z,15.13
2022-10-10T21:04:37.571Z,14.32
2022-10-10T21:07:07.630Z,11.10
2022-10-10T21:09:37.379Z,16.13
2022-10-10T21:12:07.037Z,18.70
2022-10-10T21:14:36.559Z,9.85
2022-10-10T21:17:06.059Z,12.60
2022-10-10T21:19:38.230Z,14.40
2022-10-10T21:22:07.727Z,19.33
2022-10-10T21:24:37.337Z,13.83
2022-10-10T21:27:07.122Z,20.98
2022-10-10T21:29:36.713Z,14.07
2022-10-10T21:32:06.264Z,15.98
2022-10-10T21:34:38.627Z,14.38
2022-10-10T21:37:08.144Z,17.15
2022-10-10T21:39:38.566Z,12.53
2022-10-10T21:42:08.205Z,12.45
2022-10-10T21:44:38.648Z,12.07
2022-10-10T21:47:08.298Z,11.50
2022-10-10T21:49:40.539Z,16.50
2022-10-10T21:52:10.095Z,13.10
2022-10-10T21:54:39.696Z,12.43
2022-10-10T21:57:09.856Z,15.00
2022-10-10T21:59:39.411Z,17.50
2022-10-10T22:02:08.968Z,21.15
2022-10-10T22:04:41.224Z,12.63
2022-10-10T22:07:10.759Z,9.52
2022-10-10T22:09:40.384Z,11.32
2022-10-10T22:12:10.308Z,12.60
2022-10-10T22:14:39.873Z,15.10
2022-10-10T22:17:09.401Z,7.50
2022-10-10T22:19:41.625Z,13.47
2022-10-10T22:22:11.157Z,12.40
2022-10-10T22:24:40.736Z,14.15
2022-10-10T22:27:10.286Z,14.45
2022-10-10T22:29:39.836Z,11.97
2022-10-10T22:32:09.393Z,13.63
2022-10-10T22:34:41.717Z,11.00
2022-10-10T22:37:11.268Z,8.90
2022-10-10T22:39:40.834Z,12.90
2022-10-10T22:42:10.362Z,8.80
2022-10-10T22:44:39.977Z,7.90
2022-10-10T22:47:09.596Z,14.30
2022-10-10T22:49:41.864Z,10.30
2022-10-10T22:52:12.532Z,10.45
2022-10-10T22:54:42.509Z,14.27
2022-10-10T22:57:12.163Z,11.15
2022-10-10T22:59:41.675Z,11.48
2022-10-10T23:02:11.228Z,6.75
2022-10-10T23:04:43.418Z,8.68
2022-10-10T23:07:13.860Z,12.68
2022-10-10T23:09:43.417Z,9.13
2022-10-10T23:12:12.934Z,14.55
2022-10-10T23:14:42.497Z,9.45
2022-10-10T23:17:12.047Z,12.35
2022-10-10T23:19:44.176Z,11.63
2022-10-10T23:22:14.004Z,13.80
2022-10-10T23:24:43.885Z,11.00
2022-10-10T23:27:13.445Z,9.15
2022-10-10T23:29:44.833Z,7.35
2022-10-10T23:32:14.409Z,14.35
2022-10-10T23:34:46.572Z,14.70
2022-10-10T23:37:16.088Z,11.33
2022-10-10T23:39:46.215Z,12.25
2022-10-10T23:42:15.771Z,12.93
2022-10-10T23:44:45.398Z,12.35
2022-10-10T23:47:14.949Z,11.63
2022-10-10T23:49:47.654Z,9.43
2022-10-10T23:52:17.248Z,8.80
2022-10-10T23:54:46.809Z,13.88
2022-10-10T23:57:16.380Z,10.20
2022-10-10T23:59:45.982Z,13.57
